sensor_id;sensor_type;location;lat;lon;timestamp;P1;durP1;ratioP1;P2;durP2;ratioP2
16426;SDS011;8322;-33.900;151.170;2023-04-03T00:01:53;4.20;;;1.95;;
16426;SDS011;8322;-33.900;151.170;2023-04-03T00:04:23;4.28;;;1.30;;
16426;SDS011;8322;-33.900;151.170;2023-04-03T00:06:52;5.30;;;1.45;;
16426;SDS011;8322;-33.900;151.170;2023-04-03T00:09:21;5.10;;;1.42;;
16426;SDS011;8322;-33.900;151.170;2023-04-03T00:11:51;8.73;;;1.60;;
16426;SDS011;8322;-33.900;151.170;2023-04-03T00:14:20;4.32;;;1.35;;
16426;SDS011;8322;-33.900;151.170;2023-04-03T00:16:50;5.25;;;1.52;;
16426;SDS011;8322;-33.900;151.170;2023-04-03T00:19:21;5.60;;;1.35;;
16426;SDS011;8322;-33.900;151.170;2023-04-03T00:21:51;5.43;;;1.17;;
16426;SDS011;8322;-33.900;151.170;2023-04-03T00:24:21;2.63;;;1.15;;
16426;SDS011;8322;-33.900;151.170;2023-04-03T00:26:50;5.63;;;1.30;;
16426;SDS011;8322;-33.900;151.170;2023-04-03T00:29:20;5.32;;;1.90;;
16426;SDS011;8322;-33.900;151.170;2023-04-03T00:31:50;5.80;;;1.35;;
16426;SDS011;8322;-33.900;151.170;2023-04-03T00:34:19;9.30;;;3.53;;
16426;SDS011;8322;-33.900;151.170;2023-04-03T00:36:50;7.35;;;1.55;;
16426;SDS011;8322;-33.900;151.170;2023-04-03T00:39:20;4.53;;;1.00;;
16426;SDS011;8322;-33.900;151.170;2023-04-03T00:41:49;5.00;;;1.20;;
16426;SDS011;8322;-33.900;151.170;2023-04-03T00:44:19;3.97;;;1.42;;
16426;SDS011;8322;-33.900;151.170;2023-04-03T00:46:49;7.65;;;1.75;;
16426;SDS011;8322;-33.900;151.170;2023-04-03T00:49:18;6.03;;;1.65;;
16426;SDS011;8322;-33.900;151.170;2023-04-03T00:51:50;7.60;;;1.77;;
16426;SDS011;8322;-33.900;151.170;2023-04-03T00:54:20;7.30;;;1.70;;
16426;SDS011;8322;-33.900;151.170;2023-04-03T00:56:49;6.85;;;1.73;;
16426;SDS011;8322;-33.900;151.170;2023-04-03T00:59:20;6.88;;;1.65;;
16426;SDS011;8322;-33.900;151.170;2023-04-03T01:01:52;3.40;;;1.10;;
16426;SDS011;8322;-33.900;151.170;2023-04-03T01:04:27;3.47;;;1.23;;
16426;SDS011;8322;-33.900;151.170;2023-04-03T01:07:00;6.63;;;1.60;;
16426;SDS011;8322;-33.900;151.170;2023-04-03T01:09:30;4.53;;;1.10;;
16426;SDS011;8322;-33.900;151.170;2023-04-03T01:12:12;6.22;;;1.52;;
16426;SDS011;8322;-33.900;151.170;2023-04-03T01:14:43;8.82;;;1.40;;
16426;SDS011;8322;-33.900;151.170;2023-04-03T01:20:01;2.30;;;1.05;;
16426;SDS011;8322;-33.900;151.170;2023-04-03T01:22:35;6.53;;;1.65;;
16426;SDS011;8322;-33.900;151.170;2023-04-03T01:25:12;7.18;;;1.30;;
16426;SDS011;8322;-33.900;151.170;2023-04-03T01:27:42;7.28;;;1.15;;
16426;SDS011;8322;-33.900;151.170;2023-04-03T01:30:11;5.47;;;1.10;;
16426;SDS011;8322;-33.900;151.170;2023-04-03T01:32:43;4.63;;;1.40;;
16426;SDS011;8322;-33.900;151.170;2023-04-03T01:35:13;4.75;;;1.25;;
16426;SDS011;8322;-33.900;151.170;2023-04-03T01:37:42;7.57;;;1.20;;
16426;SDS011;8322;-33.900;151.170;2023-04-03T01:40:12;23.40;;;6.47;;
16426;SDS011;8322;-33.900;151.170;2023-04-03T01:42:41;5.22;;;1.40;;
16426;SDS011;8322;-33.900;151.170;2023-04-03T01:45:11;7.30;;;2.95;;
16426;SDS011;8322;-33.900;151.170;2023-04-03T01:47:40;5.47;;;1.52;;
16426;SDS011;8322;-33.900;151.170;2023-04-03T01:50:12;6.13;;;1.40;;
16426;SDS011;8322;-33.900;151.170;2023-04-03T01:52:41;4.82;;;1.23;;
16426;SDS011;8322;-33.900;151.170;2023-04-03T01:55:10;7.18;;;1.60;;
16426;SDS011;8322;-33.900;151.170;2023-04-03T01:57:41;14.20;;;12.95;;
16426;SDS011;8322;-33.900;151.170;2023-04-03T02:00:10;4.65;;;1.52;;
16426;SDS011;8322;-33.900;151.170;2023-04-03T02:02:40;6.35;;;1.27;;
16426;SDS011;8322;-33.900;151.170;2023-04-03T02:05:11;6.03;;;1.20;;
16426;SDS011;8322;-33.900;151.170;2023-04-03T02:07:41;10.05;;;2.42;;
16426;SDS011;8322;-33.900;151.170;2023-04-03T02:10:10;5.47;;;1.42;;
16426;SDS011;8322;-33.900;151.170;2023-04-03T02:12:40;4.95;;;1.42;;
16426;SDS011;8322;-33.900;151.170;2023-04-03T02:15:09;9.77;;;1.80;;
16426;SDS011;8322;-33.900;151.170;2023-04-03T02:17:39;6.85;;;1.20;;
16426;SDS011;8322;-33.900;151.170;2023-04-03T02:20:08;6.78;;;1.40;;
16426;SDS011;8322;-33.900;151.170;2023-04-03T02:22:40;5.90;;;1.40;;
16426;SDS011;8322;-33.900;151.170;2023-04-03T02:25:09;6.10;;;1.50;;
16426;SDS011;8322;-33.900;151.170;2023-04-03T02:27:39;4.30;;;1.13;;
16426;SDS011;8322;-33.900;151.170;2023-04-03T02:30:09;7.78;;;1.52;;
16426;SDS011;8322;-33.900;151.170;2023-04-03T02:32:39;7.05;;;1.52;;
16426;SDS011;8322;-33.900;151.170;2023-04-03T02:35:09;8.85;;;3.10;;
16426;SDS011;8322;-33.900;151.170;2023-04-03T02:37:40;14.32;;;2.60;;
16426;SDS011;8322;-33.900;151.170;2023-04-03T02:40:10;17.23;;;2.92;;
16426;SDS011;8322;-33.900;151.170;2023-04-03T02:42:40;9.80;;;3.45;;
16426;SDS011;8322;-33.900;151.170;2023-04-03T02:45:09;5.60;;;1.13;;
16426;SDS011;8322;-33.900;151.170;2023-04-03T02:47:39;5.63;;;1.60;;
16426;SDS011;8322;-33.900;151.170;2023-04-03T02:50:08;5.00;;;1.33;;
16426;SDS011;8322;-33.900;151.170;2023-04-03T02:52:38;6.03;;;1.27;;
16426;SDS011;8322;-33.900;151.170;2023-04-03T02:55:12;6.05;;;1.45;;
16426;SDS011;8322;-33.900;151.170;2023-04-03T02:57:43;7.43;;;1.15;;
16426;SDS011;8322;-33.900;151.170;2023-04-03T03:00:12;8.40;;;1.40;;
16426;SDS011;8322;-33.900;151.170;2023-04-03T03:02:42;5.35;;;1.00;;
16426;SDS011;8322;-33.900;151.170;2023-04-03T03:05:11;6.05;;;1.05;;
16426;SDS011;8322;-33.900;151.170;2023-04-03T03:07:41;3.90;;;1.08;;
16426;SDS011;8322;-33.900;151.170;2023-04-03T03:10:12;6.95;;;0.90;;
16426;SDS011;8322;-33.900;151.170;2023-04-03T03:12:42;5.78;;;1.10;;
16426;SDS011;8322;-33.900;151.170;2023-04-03T03:15:12;6.78;;;1.00;;
16426;SDS011;8322;-33.900;151.170;2023-04-03T03:17:42;4.60;;;0.93;;
16426;SDS011;8322;-33.900;151.170;2023-04-03T03:20:12;6.75;;;1.90;;
16426;SDS011;8322;-33.900;151.170;2023-04-03T03:22:42;6.60;;;1.10;;
16426;SDS011;8322;-33.900;151.170;2023-04-03T03:25:13;3.33;;;0.90;;
16426;SDS011;8322;-33.900;151.170;2023-04-03T03:27:43;5.50;;;1.05;;
16426;SDS011;8322;-33.900;151.170;2023-04-03T03:30:12;3.55;;;0.80;;
16426;SDS011;8322;-33.900;151.170;2023-04-03T03:32:42;5.53;;;1.17;;
16426;SDS011;8322;-33.900;151.170;2023-04-03T03:35:11;4.30;;;1.00;;
16426;SDS011;8322;-33.900;151.170;2023-04-03T03:37:41;7.88;;;2.15;;
16426;SDS011;8322;-33.900;151.170;2023-04-03T03:40:10;8.45;;;1.27;;
16426;SDS011;8322;-33.900;151.170;2023-04-03T03:42:42;3.38;;;0.95;;
16426;SDS011;8322;-33.900;151.170;2023-04-03T03:45:11;5.97;;;1.00;;
16426;SDS011;8322;-33.900;151.170;2023-04-03T03:47:41;7.10;;;1.20;;
16426;SDS011;8322;-33.900;151.170;2023-04-03T03:50:11;5.82;;;1.30;;
16426;SDS011;8322;-33.900;151.170;2023-04-03T03:52:41;5.35;;;1.00;;
16426;SDS011;8322;-33.900;151.170;2023-04-03T03:55:10;5.97;;;0.90;;
16426;SDS011;8322;-33.900;151.170;2023-04-03T03:57:41;8.43;;;1.45;;
16426;SDS011;8322;-33.900;151.170;2023-04-03T04:00:11;8.73;;;1.45;;
16426;SDS011;8322;-33.900;151.170;2023-04-03T04:02:41;8.38;;;1.35;;
16426;SDS011;8322;-33.900;151.170;2023-04-03T04:05:10;8.85;;;1.40;;
16426;SDS011;8322;-33.900;151.170;2023-04-03T04:07:40;5.95;;;1.02;;
16426;SDS011;8322;-33.900;151.170;2023-04-03T04:10:09;10.05;;;1.38;;
16426;SDS011;8322;-33.900;151.170;2023-04-03T04:12:41;6.20;;;1.25;;
16426;SDS011;8322;-33.900;151.170;2023-04-03T04:15:10;6.80;;;1.98;;
16426;SDS011;8322;-33.900;151.170;2023-04-03T04:17:40;8.00;;;1.40;;
16426;SDS011;8322;-33.900;151.170;2023-04-03T04:20:10;6.93;;;1.40;;
16426;SDS011;8322;-33.900;151.170;2023-04-03T04:22:39;5.60;;;1.30;;
16426;SDS011;8322;-33.900;151.170;2023-04-03T04:25:09;10.25;;;1.15;;
16426;SDS011;8322;-33.900;151.170;2023-04-03T04:27:38;6.40;;;1.20;;
16426;SDS011;8322;-33.900;151.170;2023-04-03T04:30:10;9.27;;;1.40;;
16426;SDS011;8322;-33.900;151.170;2023-04-03T04:32:41;6.97;;;1.02;;
16426;SDS011;8322;-33.900;151.170;2023-04-03T04:35:10;5.82;;;1.10;;
16426;SDS011;8322;-33.900;151.170;2023-04-03T04:37:40;7.95;;;1.67;;
16426;SDS011;8322;-33.900;151.170;2023-04-03T04:40:09;8.70;;;1.40;;
16426;SDS011;8322;-33.900;151.170;2023-04-03T04:42:39;8.45;;;1.00;;
16426;SDS011;8322;-33.900;151.170;2023-04-03T04:45:10;5.55;;;0.85;;
16426;SDS011;8322;-33.900;151.170;2023-04-03T04:47:41;6.95;;;1.23;;
16426;SDS011;8322;-33.900;151.170;2023-04-03T04:50:10;7.57;;;1.30;;
16426;SDS011;8322;-33.900;151.170;2023-04-03T04:52:40;5.22;;;1.23;;
16426;SDS011;8322;-33.900;151.170;2023-04-03T04:55:09;6.05;;;0.98;;
16426;SDS011;8322;-33.900;151.170;2023-04-03T04:57:38;5.90;;;1.17;;
16426;SDS011;8322;-33.900;151.170;2023-04-03T05:00:10;4.75;;;1.25;;
16426;SDS011;8322;-33.900;151.170;2023-04-03T05:02:40;4.10;;;1.00;;
16426;SDS011;8322;-33.900;151.170;2023-04-03T05:05:10;4.28;;;0.80;;
16426;SDS011;8322;-33.900;151.170;2023-04-03T05:07:39;5.38;;;1.02;;
16426;SDS011;8322;-33.900;151.170;2023-04-03T05:10:09;7.75;;;1.08;;
16426;SDS011;8322;-33.900;151.170;2023-04-03T05:12:39;8.98;;;0.98;;
16426;SDS011;8322;-33.900;151.170;2023-04-03T05:15:10;8.20;;;1.20;;
16426;SDS011;8322;-33.900;151.170;2023-04-03T05:17:40;6.80;;;1.85;;
16426;SDS011;8322;-33.900;151.170;2023-04-03T05:20:10;7.43;;;1.20;;
16426;SDS011;8322;-33.900;151.170;2023-04-03T05:22:39;6.32;;;1.17;;
16426;SDS011;8322;-33.900;151.170;2023-04-03T05:25:09;8.30;;;1.10;;
16426;SDS011;8322;-33.900;151.170;2023-04-03T05:27:38;7.40;;;1.23;;
16426;SDS011;8322;-33.900;151.170;2023-04-03T05:30:08;2.50;;;0.70;;
16426;SDS011;8322;-33.900;151.170;2023-04-03T05:32:39;4.80;;;1.60;;
16426;SDS011;8322;-33.900;151.170;2023-04-03T05:35:09;5.20;;;0.90;;
16426;SDS011;8322;-33.900;151.170;2023-04-03T05:37:39;5.05;;;0.93;;
16426;SDS011;8322;-33.900;151.170;2023-04-03T05:40:09;5.38;;;1.00;;
16426;SDS011;8322;-33.900;151.170;2023-04-03T05:42:38;3.25;;;1.10;;
16426;SDS011;8322;-33.900;151.170;2023-04-03T05:45:08;3.47;;;0.77;;
16426;SDS011;8322;-33.900;151.170;2023-04-03T05:47:39;6.35;;;1.27;;
16426;SDS011;8322;-33.900;151.170;2023-04-03T05:50:09;4.82;;;1.13;;
16426;SDS011;8322;-33.900;151.170;2023-04-03T05:52:40;7.50;;;1.50;;
16426;SDS011;8322;-33.900;151.170;2023-04-03T05:55:09;7.35;;;1.60;;
16426;SDS011;8322;-33.900;151.170;2023-04-03T05:57:39;10.05;;;1.50;;
16426;SDS011;8322;-33.900;151.170;2023-04-03T06:00:10;3.45;;;1.05;;
16426;SDS011;8322;-33.900;151.170;2023-04-03T06:02:43;2.80;;;0.80;;
16426;SDS011;8322;-33.900;151.170;2023-04-03T06:05:12;4.72;;;1.10;;
16426;SDS011;8322;-33.900;151.170;2023-04-03T06:07:42;5.20;;;1.00;;
16426;SDS011;8322;-33.900;151.170;2023-04-03T06:10:11;4.72;;;1.02;;
16426;SDS011;8322;-33.900;151.170;2023-04-03T06:12:41;5.90;;;1.20;;
16426;SDS011;8322;-33.900;151.170;2023-04-03T06:15:10;7.60;;;1.52;;
16426;SDS011;8322;-33.900;151.170;2023-04-03T06:17:42;7.90;;;1.50;;
16426;SDS011;8322;-33.900;151.170;2023-04-03T06:20:12;8.70;;;1.45;;
16426;SDS011;8322;-33.900;151.170;2023-04-03T06:22:41;10.75;;;1.52;;
16426;SDS011;8322;-33.900;151.170;2023-04-03T06:25:11;10.07;;;1.38;;
16426;SDS011;8322;-33.900;151.170;2023-04-03T06:27:43;6.00;;;1.10;;
16426;SDS011;8322;-33.900;151.170;2023-04-03T06:30:12;8.65;;;1.40;;
16426;SDS011;8322;-33.900;151.170;2023-04-03T06:32:44;6.70;;;2.00;;
16426;SDS011;8322;-33.900;151.170;2023-04-03T06:35:13;8.73;;;1.50;;
16426;SDS011;8322;-33.900;151.170;2023-04-03T06:37:43;7.53;;;1.40;;
16426;SDS011;8322;-33.900;151.170;2023-04-03T06:40:14;8.15;;;1.60;;
16426;SDS011;8322;-33.900;151.170;2023-04-03T06:42:46;6.32;;;1.40;;
16426;SDS011;8322;-33.900;151.170;2023-04-03T06:45:15;7.60;;;1.55;;
16426;SDS011;8322;-33.900;151.170;2023-04-03T06:47:47;6.60;;;1.50;;
16426;SDS011;8322;-33.900;151.170;2023-04-03T06:50:16;9.68;;;1.52;;
16426;SDS011;8322;-33.900;151.170;2023-04-03T06:52:46;9.65;;;3.70;;
16426;SDS011;8322;-33.900;151.170;2023-04-03T06:55:15;7.75;;;2.20;;
16426;SDS011;8322;-33.900;151.170;2023-04-03T06:57:45;8.07;;;1.70;;
16426;SDS011;8322;-33.900;151.170;2023-04-03T07:00:15;6.28;;;1.65;;
16426;SDS011;8322;-33.900;151.170;2023-04-03T07:02:46;8.70;;;2.92;;
16426;SDS011;8322;-33.900;151.170;2023-04-03T07:05:16;10.63;;;2.60;;
16426;SDS011;8322;-33.900;151.170;2023-04-03T07:07:45;7.22;;;1.52;;
16426;SDS011;8322;-33.900;151.170;2023-04-03T07:10:15;7.53;;;2.20;;
16426;SDS011;8322;-33.900;151.170;2023-04-03T07:12:45;11.90;;;2.00;;
16426;SDS011;8322;-33.900;151.170;2023-04-03T07:15:15;7.10;;;1.70;;
16426;SDS011;8322;-33.900;151.170;2023-04-03T07:17:44;7.72;;;1.73;;
16426;SDS011;8322;-33.900;151.170;2023-04-03T07:20:15;7.18;;;2.22;;
16426;SDS011;8322;-33.900;151.170;2023-04-03T07:22:45;9.70;;;2.95;;
16426;SDS011;8322;-33.900;151.170;2023-04-03T07:25:14;8.43;;;2.45;;
16426;SDS011;8322;-33.900;151.170;2023-04-03T07:27:44;8.65;;;3.75;;
16426;SDS011;8322;-33.900;151.170;2023-04-03T07:30:13;10.35;;;3.40;;
16426;SDS011;8322;-33.900;151.170;2023-04-03T07:32:43;11.10;;;3.72;;
16426;SDS011;8322;-33.900;151.170;2023-04-03T07:35:13;9.43;;;2.20;;
16426;SDS011;8322;-33.900;151.170;2023-04-03T07:37:44;22.73;;;11.88;;
16426;SDS011;8322;-33.900;151.170;2023-04-03T07:40:13;14.45;;;6.65;;
16426;SDS011;8322;-33.900;151.170;2023-04-03T07:42:43;6.35;;;2.45;;
16426;SDS011;8322;-33.900;151.170;2023-04-03T07:45:12;15.93;;;7.65;;
16426;SDS011;8322;-33.900;151.170;2023-04-03T07:47:43;13.35;;;6.10;;
16426;SDS011;8322;-33.900;151.170;2023-04-03T07:50:12;13.55;;;4.63;;
16426;SDS011;8322;-33.900;151.170;2023-04-03T07:52:42;17.25;;;7.85;;
16426;SDS011;8322;-33.900;151.170;2023-04-03T07:55:13;11.65;;;2.60;;
16426;SDS011;8322;-33.900;151.170;2023-04-03T07:57:43;11.20;;;3.75;;
16426;SDS011;8322;-33.900;151.170;2023-04-03T08:00:13;12.95;;;3.08;;
16426;SDS011;8322;-33.900;151.170;2023-04-03T08:02:43;11.68;;;3.95;;
16426;SDS011;8322;-33.900;151.170;2023-04-03T08:05:16;13.23;;;4.63;;
16426;SDS011;8322;-33.900;151.170;2023-04-03T08:07:45;11.77;;;3.50;;
16426;SDS011;8322;-33.900;151.170;2023-04-03T08:10:17;10.73;;;2.83;;
16426;SDS011;8322;-33.900;151.170;2023-04-03T08:12:46;10.85;;;3.60;;
16426;SDS011;8322;-33.900;151.170;2023-04-03T08:15:17;13.45;;;3.42;;
16426;SDS011;8322;-33.900;151.170;2023-04-03T08:17:46;10.68;;;4.18;;
16426;SDS011;8322;-33.900;151.170;2023-04-03T08:20:16;10.18;;;4.53;;
16426;SDS011;8322;-33.900;151.170;2023-04-03T08:22:46;12.98;;;4.05;;
16426;SDS011;8322;-33.900;151.170;2023-04-03T08:25:17;14.90;;;5.78;;
16426;SDS011;8322;-33.900;151.170;2023-04-03T08:27:47;8.48;;;3.25;;
16426;SDS011;8322;-33.900;151.170;2023-04-03T08:30:16;12.60;;;4.10;;
16426;SDS011;8322;-33.900;151.170;2023-04-03T08:32:46;10.73;;;2.63;;
16426;SDS011;8322;-33.900;151.170;2023-04-03T08:35:17;11.77;;;3.20;;
16426;SDS011;8322;-33.900;151.170;2023-04-03T08:37:47;10.30;;;3.15;;
16426;SDS011;8322;-33.900;151.170;2023-04-03T08:40:19;17.73;;;7.47;;
16426;SDS011;8322;-33.900;151.170;2023-04-03T08:42:51;15.95;;;7.10;;
16426;SDS011;8322;-33.900;151.170;2023-04-03T08:45:25;20.65;;;9.18;;
16426;SDS011;8322;-33.900;151.170;2023-04-03T08:47:57;12.82;;;3.50;;
16426;SDS011;8322;-33.900;151.170;2023-04-03T08:50:30;12.75;;;2.70;;
16426;SDS011;8322;-33.900;151.170;2023-04-03T08:53:01;10.30;;;2.50;;
16426;SDS011;8322;-33.900;151.170;2023-04-03T08:55:37;18.50;;;8.52;;
16426;SDS011;8322;-33.900;151.170;2023-04-03T08:58:10;26.20;;;13.15;;
16426;SDS011;8322;-33.900;151.170;2023-04-03T09:00:43;21.92;;;10.70;;
16426;SDS011;8322;-33.900;151.170;2023-04-03T09:03:13;19.10;;;5.40;;
16426;SDS011;8322;-33.900;151.170;2023-04-03T09:05:45;10.38;;;3.22;;
16426;SDS011;8322;-33.900;151.170;2023-04-03T09:08:21;10.85;;;4.13;;
16426;SDS011;8322;-33.900;151.170;2023-04-03T09:10:55;8.02;;;3.20;;
16426;SDS011;8322;-33.900;151.170;2023-04-03T09:13:28;11.05;;;4.70;;
16426;SDS011;8322;-33.900;151.170;2023-04-03T09:16:00;11.23;;;4.10;;
16426;SDS011;8322;-33.900;151.170;2023-04-03T09:18:32;8.77;;;2.95;;
16426;SDS011;8322;-33.900;151.170;2023-04-03T09:21:07;12.40;;;6.25;;
16426;SDS011;8322;-33.900;151.170;2023-04-03T09:23:40;25.42;;;12.45;;
16426;SDS011;8322;-33.900;151.170;2023-04-03T09:26:13;20.65;;;11.85;;
16426;SDS011;8322;-33.900;151.170;2023-04-03T09:28:43;17.95;;;7.03;;
16426;SDS011;8322;-33.900;151.170;2023-04-03T09:31:18;22.52;;;10.82;;
16426;SDS011;8322;-33.900;151.170;2023-04-03T09:33:49;11.05;;;3.30;;
16426;SDS011;8322;-33.900;151.170;2023-04-03T09:39:10;21.58;;;11.23;;
16426;SDS011;8322;-33.900;151.170;2023-04-03T09:41:42;8.88;;;3.60;;
16426;SDS011;8322;-33.900;151.170;2023-04-03T09:44:24;11.50;;;4.68;;
16426;SDS011;8322;-33.900;151.170;2023-04-03T09:46:53;13.88;;;3.33;;
16426;SDS011;8322;-33.900;151.170;2023-04-03T09:49:23;10.07;;;3.28;;
16426;SDS011;8322;-33.900;151.170;2023-04-03T09:51:52;10.88;;;3.40;;
16426;SDS011;8322;-33.900;151.170;2023-04-03T09:54:34;10.60;;;2.35;;
16426;SDS011;8322;-33.900;151.170;2023-04-03T09:57:10;9.43;;;3.58;;
16426;SDS011;8322;-33.900;151.170;2023-04-03T09:59:42;13.20;;;4.90;;
16426;SDS011;8322;-33.900;151.170;2023-04-03T10:02:34;11.57;;;5.10;;
16426;SDS011;8322;-33.900;151.170;2023-04-03T10:05:04;12.38;;;3.67;;
16426;SDS011;8322;-33.900;151.170;2023-04-03T10:07:34;11.05;;;3.50;;
16426;SDS011;8322;-33.900;151.170;2023-04-03T10:10:16;16.58;;;6.65;;
16426;SDS011;8322;-33.900;151.170;2023-04-03T10:12:50;13.40;;;4.90;;
16426;SDS011;8322;-33.900;151.170;2023-04-03T10:15:32;21.98;;;10.32;;
16426;SDS011;8322;-33.900;151.170;2023-04-03T10:18:06;8.43;;;2.67;;
16426;SDS011;8322;-33.900;151.170;2023-04-03T10:20:39;8.90;;;2.50;;
16426;SDS011;8322;-33.900;151.170;2023-04-03T10:23:15;9.45;;;2.50;;
16426;SDS011;8322;-33.900;151.170;2023-04-03T10:25:49;10.70;;;1.70;;
16426;SDS011;8322;-33.900;151.170;2023-04-03T10:28:25;5.90;;;1.55;;
16426;SDS011;8322;-33.900;151.170;2023-04-03T10:30:57;9.35;;;1.80;;
16426;SDS011;8322;-33.900;151.170;2023-04-03T10:33:30;10.57;;;1.85;;
16426;SDS011;8322;-33.900;151.170;2023-04-03T10:36:06;8.10;;;2.00;;
16426;SDS011;8322;-33.900;151.170;2023-04-03T10:38:39;13.38;;;3.55;;
16426;SDS011;8322;-33.900;151.170;2023-04-03T10:41:11;9.98;;;2.60;;
16426;SDS011;8322;-33.900;151.170;2023-04-03T10:43:44;7.55;;;1.73;;
16426;SDS011;8322;-33.900;151.170;2023-04-03T10:46:17;8.02;;;2.10;;
16426;SDS011;8322;-33.900;151.170;2023-04-03T10:48:57;8.60;;;1.70;;
16426;SDS011;8322;-33.900;151.170;2023-04-03T10:51:33;8.85;;;2.17;;
16426;SDS011;8322;-33.900;151.170;2023-04-03T10:54:05;10.40;;;1.70;;
16426;SDS011;8322;-33.900;151.170;2023-04-03T10:56:38;9.48;;;1.83;;
16426;SDS011;8322;-33.900;151.170;2023-04-03T10:59:15;7.30;;;1.42;;
16426;SDS011;8322;-33.900;151.170;2023-04-03T11:01:47;10.35;;;1.98;;
16426;SDS011;8322;-33.900;151.170;2023-04-03T11:04:17;6.20;;;1.75;;
16426;SDS011;8322;-33.900;151.170;2023-04-03T11:06:49;8.77;;;1.90;;
16426;SDS011;8322;-33.900;151.170;2023-04-03T11:09:23;8.15;;;1.60;;
16426;SDS011;8322;-33.900;151.170;2023-04-03T11:11:54;7.25;;;2.13;;
16426;SDS011;8322;-33.900;151.170;2023-04-03T11:14:26;7.32;;;2.05;;
16426;SDS011;8322;-33.900;151.170;2023-04-03T11:17:01;10.57;;;1.80;;
16426;SDS011;8322;-33.900;151.170;2023-04-03T11:19:34;8.35;;;1.40;;
16426;SDS011;8322;-33.900;151.170;2023-04-03T11:22:08;9.68;;;1.73;;
16426;SDS011;8322;-33.900;151.170;2023-04-03T11:24:41;7.85;;;1.50;;
16426;SDS011;8322;-33.900;151.170;2023-04-03T11:27:13;5.32;;;1.33;;
16426;SDS011;8322;-33.900;151.170;2023-04-03T11:29:46;8.43;;;2.80;;
16426;SDS011;8322;-33.900;151.170;2023-04-03T11:32:24;8.70;;;2.60;;
16426;SDS011;8322;-33.900;151.170;2023-04-03T11:34:57;8.57;;;2.85;;
16426;SDS011;8322;-33.900;151.170;2023-04-03T11:37:28;9.20;;;1.90;;
16426;SDS011;8322;-33.900;151.170;2023-04-03T11:39:59;8.63;;;2.00;;
16426;SDS011;8322;-33.900;151.170;2023-04-03T11:42:32;5.55;;;1.58;;
16426;SDS011;8322;-33.900;151.170;2023-04-03T11:47:52;7.65;;;3.13;;
16426;SDS011;8322;-33.900;151.170;2023-04-03T11:50:37;10.15;;;4.18;;
16426;SDS011;8322;-33.900;151.170;2023-04-03T11:53:30;11.27;;;3.80;;
16426;SDS011;8322;-33.900;151.170;2023-04-03T11:56:01;7.80;;;2.40;;
16426;SDS011;8322;-33.900;151.170;2023-04-03T11:58:31;7.03;;;2.00;;
16426;SDS011;8322;-33.900;151.170;2023-04-03T12:01:03;10.13;;;1.80;;
16426;SDS011;8322;-33.900;151.170;2023-04-03T12:03:55;9.15;;;1.90;;
16426;SDS011;8322;-33.900;151.170;2023-04-03T12:06:49;7.15;;;1.60;;
16426;SDS011;8322;-33.900;151.170;2023-04-03T12:09:26;6.82;;;1.40;;
16426;SDS011;8322;-33.900;151.170;2023-04-03T12:11:56;7.30;;;1.95;;
16426;SDS011;8322;-33.900;151.170;2023-04-03T12:14:28;7.00;;;1.83;;
16426;SDS011;8322;-33.900;151.170;2023-04-03T12:16:57;7.50;;;1.63;;
16426;SDS011;8322;-33.900;151.170;2023-04-03T12:19:31;12.40;;;1.80;;
16426;SDS011;8322;-33.900;151.170;2023-04-03T12:22:11;7.68;;;1.30;;
16426;SDS011;8322;-33.900;151.170;2023-04-03T12:24:41;6.20;;;1.50;;
16426;SDS011;8322;-33.900;151.170;2023-04-03T12:27:21;6.68;;;1.40;;
16426;SDS011;8322;-33.900;151.170;2023-04-03T12:29:55;4.53;;;1.13;;
16426;SDS011;8322;-33.900;151.170;2023-04-03T12:32:36;7.53;;;1.40;;
16426;SDS011;8322;-33.900;151.170;2023-04-03T12:35:14;8.27;;;1.35;;
16426;SDS011;8322;-33.900;151.170;2023-04-03T12:37:49;6.50;;;1.48;;
16426;SDS011;8322;-33.900;151.170;2023-04-03T12:40:25;5.20;;;0.88;;
16426;SDS011;8322;-33.900;151.170;2023-04-03T12:43:02;3.28;;;0.90;;
16426;SDS011;8322;-33.900;151.170;2023-04-03T12:45:40;5.22;;;1.40;;
16426;SDS011;8322;-33.900;151.170;2023-04-03T12:48:13;6.40;;;1.50;;
16426;SDS011;8322;-33.900;151.170;2023-04-03T12:50:46;6.82;;;1.52;;
16426;SDS011;8322;-33.900;151.170;2023-04-03T12:53:17;5.20;;;1.30;;
16426;SDS011;8322;-33.900;151.170;2023-04-03T12:55:47;9.88;;;1.40;;
16426;SDS011;8322;-33.900;151.170;2023-04-03T12:58:19;4.63;;;1.10;;
16426;SDS011;8322;-33.900;151.170;2023-04-03T13:00:59;5.97;;;1.30;;
16426;SDS011;8322;-33.900;151.170;2023-04-03T13:03:29;6.78;;;1.50;;
16426;SDS011;8322;-33.900;151.170;2023-04-03T13:06:01;6.80;;;1.25;;
16426;SDS011;8322;-33.900;151.170;2023-04-03T13:08:32;7.00;;;1.35;;
16426;SDS011;8322;-33.900;151.170;2023-04-03T13:11:02;8.77;;;1.50;;
16426;SDS011;8322;-33.900;151.170;2023-04-03T13:13:31;9.95;;;1.52;;
16426;SDS011;8322;-33.900;151.170;2023-04-03T13:16:07;3.95;;;1.10;;
16426;SDS011;8322;-33.900;151.170;2023-04-03T13:18:37;4.70;;;1.05;;
16426;SDS011;8322;-33.900;151.170;2023-04-03T13:21:12;6.45;;;1.35;;
16426;SDS011;8322;-33.900;151.170;2023-04-03T13:23:43;6.63;;;1.30;;
16426;SDS011;8322;-33.900;151.170;2023-04-03T13:26:15;4.70;;;1.30;;
16426;SDS011;8322;-33.900;151.170;2023-04-03T13:28:45;2.92;;;1.00;;
16426;SDS011;8322;-33.900;151.170;2023-04-03T13:31:19;8.43;;;1.42;;
16426;SDS011;8322;-33.900;151.170;2023-04-03T13:33:54;7.65;;;1.48;;
16426;SDS011;8322;-33.900;151.170;2023-04-03T13:36:27;7.30;;;1.60;;
16426;SDS011;8322;-33.900;151.170;2023-04-03T13:38:59;5.85;;;1.40;;
16426;SDS011;8322;-33.900;151.170;2023-04-03T13:41:29;6.18;;;1.67;;
16426;SDS011;8322;-33.900;151.170;2023-04-03T13:46:43;5.45;;;1.35;;
16426;SDS011;8322;-33.900;151.170;2023-04-03T13:49:19;4.93;;;1.30;;
16426;SDS011;8322;-33.900;151.170;2023-04-03T13:51:51;5.88;;;1.20;;
16426;SDS011;8322;-33.900;151.170;2023-04-03T13:54:22;5.25;;;1.05;;
16426;SDS011;8322;-33.900;151.170;2023-04-03T13:56:53;5.30;;;1.23;;
16426;SDS011;8322;-33.900;151.170;2023-04-03T13:59:24;3.00;;;1.00;;
16426;SDS011;8322;-33.900;151.170;2023-04-03T14:01:54;4.88;;;1.20;;
16426;SDS011;8322;-33.900;151.170;2023-04-03T14:04:24;5.50;;;1.05;;
16426;SDS011;8322;-33.900;151.170;2023-04-03T14:06:56;6.63;;;1.35;;
16426;SDS011;8322;-33.900;151.170;2023-04-03T14:09:26;6.20;;;1.33;;
16426;SDS011;8322;-33.900;151.170;2023-04-03T14:11:57;4.63;;;1.20;;
16426;SDS011;8322;-33.900;151.170;2023-04-03T14:14:27;8.05;;;1.30;;
16426;SDS011;8322;-33.900;151.170;2023-04-03T14:16:59;5.38;;;1.33;;
16426;SDS011;8322;-33.900;151.170;2023-04-03T14:19:29;9.45;;;1.30;;
16426;SDS011;8322;-33.900;151.170;2023-04-03T14:22:05;5.90;;;1.60;;
16426;SDS011;8322;-33.900;151.170;2023-04-03T14:24:35;7.45;;;1.40;;
16426;SDS011;8322;-33.900;151.170;2023-04-03T14:27:05;7.18;;;1.50;;
16426;SDS011;8322;-33.900;151.170;2023-04-03T14:29:40;5.65;;;1.20;;
16426;SDS011;8322;-33.900;151.170;2023-04-03T14:32:19;4.38;;;1.35;;
16426;SDS011;8322;-33.900;151.170;2023-04-03T14:34:50;8.05;;;1.27;;
16426;SDS011;8322;-33.900;151.170;2023-04-03T14:37:20;7.20;;;1.20;;
16426;SDS011;8322;-33.900;151.170;2023-04-03T14:39:50;6.40;;;1.20;;
16426;SDS011;8322;-33.900;151.170;2023-04-03T14:42:20;4.03;;;1.13;;
16426;SDS011;8322;-33.900;151.170;2023-04-03T14:44:50;12.98;;;1.98;;
16426;SDS011;8322;-33.900;151.170;2023-04-03T14:47:22;7.07;;;1.55;;
16426;SDS011;8322;-33.900;151.170;2023-04-03T14:49:53;8.32;;;1.83;;
16426;SDS011;8322;-33.900;151.170;2023-04-03T14:52:24;7.10;;;1.67;;
16426;SDS011;8322;-33.900;151.170;2023-04-03T14:54:54;7.80;;;1.67;;